createdAt,value
2023-03-23T15:59:18.595Z,98522.65
2023-03-23T16:01:46.887Z,98525.98
2023-03-23T16:04:19.671Z,98527.77
2023-03-23T16:06:48.355Z,98527.54
2023-03-23T16:09:18.472Z,98527.30
2023-03-23T16:11:50.479Z,98526.05
2023-03-23T16:14:20.704Z,98528.27
2023-03-23T16:16:53.584Z,98528.42
2023-03-23T16:19:24.656Z,98532.66
2023-03-23T16:21:53.477Z,98531.52
2023-03-23T16:24:25.726Z,98532.95
2023-03-23T16:26:54.447Z,98534.53
2023-03-23T16:29:39.987Z,98533.93
2023-03-23T16:32:10.949Z,98532.81
2023-03-23T16:34:39.603Z,98535.23
2023-03-23T16:37:12.288Z,98534.11
2023-03-23T16:39:42.411Z,98535.62
2023-03-23T16:42:10.512Z,98534.14
2023-03-23T16:44:41.616Z,98537.05
2023-03-23T16:47:10.141Z,98538.17
2023-03-23T16:49:38.382Z,98533.70
2023-03-23T16:52:07.095Z,98533.02
2023-03-23T16:54:35.112Z,98535.60
2023-03-23T16:57:05.170Z,98532.77
2023-03-23T16:59:33.486Z,98536.24
2023-03-23T17:02:03.982Z,98533.54
2023-03-23T17:04:34.776Z,98534.86
2023-03-23T17:07:03.460Z,98535.33
2023-03-23T17:09:31.615Z,98531.88
2023-03-23T17:12:02.605Z,98535.69
2023-03-23T17:14:30.832Z,98536.00
2023-03-23T17:16:59.906Z,98537.46
2023-03-23T17:19:27.995Z,98537.26
2023-03-23T17:21:56.248Z,98535.89
2023-03-23T17:24:31.070Z,98537.38
2023-03-23T17:26:59.076Z,98537.83
2023-03-23T17:29:27.090Z,98531.21
2023-03-23T17:31:55.769Z,98530.63
2023-03-23T17:34:24.524Z,98534.88
2023-03-23T17:36:52.857Z,98536.36
2023-03-23T17:39:20.974Z,98534.02
2023-03-23T17:41:49.427Z,98531.73
2023-03-23T17:44:17.500Z,98533.96
2023-03-23T17:46:46.009Z,98537.42
2023-03-23T17:49:13.958Z,98534.54
2023-03-23T17:51:44.611Z,98532.11
2023-03-23T17:54:12.625Z,98530.33
2023-03-23T17:56:41.790Z,98524.80
2023-03-23T17:59:10.121Z,98524.04
2023-03-23T18:01:41.003Z,98525.72
2023-03-23T18:04:10.440Z,98523.48
2023-03-23T18:06:38.747Z,98522.45
2023-03-23T18:09:06.709Z,98522.81
2023-03-23T18:11:36.720Z,98517.84
2023-03-23T18:14:04.636Z,98521.79
2023-03-23T18:16:35.522Z,98524.06
2023-03-23T18:19:06.585Z,98520.68
2023-03-23T18:21:34.971Z,98524.96
2023-03-23T18:24:08.084Z,98523.30
2023-03-23T18:26:36.316Z,98524.44
2023-03-23T18:29:04.869Z,98525.48
2023-03-23T18:31:33.026Z,98526.98
2023-03-23T18:34:01.837Z,98524.01
2023-03-23T18:36:30.593Z,98520.83
2023-03-23T18:38:59.285Z,98521.83
2023-03-23T18:41:27.675Z,98517.88
2023-03-23T18:43:57.740Z,98519.30
2023-03-23T18:46:27.875Z,98516.27
2023-03-23T18:48:56.924Z,98512.44
2023-03-23T18:51:26.218Z,98510.41
2023-03-23T18:53:54.765Z,98507.55
2023-03-23T18:56:22.905Z,98505.27
2023-03-23T18:58:52.378Z,98509.46
2023-03-23T19:01:20.782Z,98511.21
2023-03-23T19:03:49.030Z,98507.51
2023-03-23T19:06:19.518Z,98505.39
2023-03-23T19:08:48.408Z,98507.77
2023-03-23T19:11:17.449Z,98503.98
2023-03-23T19:13:58.429Z,98509.09
2023-03-23T19:16:36.108Z,98510.57
2023-03-23T19:19:08.511Z,98509.55
2023-03-23T19:21:37.655Z,98514.03
2023-03-23T19:24:07.301Z,98509.14
2023-03-23T19:26:38.394Z,98512.71
2023-03-23T19:29:25.958Z,98510.80
2023-03-23T19:32:01.870Z,98513.52
2023-03-23T19:34:32.498Z,98507.41
2023-03-23T19:37:05.499Z,98505.80
2023-03-23T19:39:36.433Z,98504.25
2023-03-23T19:42:05.977Z,98504.01
2023-03-23T19:44:34.841Z,98503.61
2023-03-23T19:47:04.080Z,98504.31
2023-03-23T19:49:37.009Z,98504.81
2023-03-23T19:52:11.981Z,98504.05
2023-03-23T19:54:42.285Z,98505.60
2023-03-23T19:57:11.266Z,98505.37
2023-03-23T19:59:39.533Z,98505.75
2023-03-23T20:02:11.578Z,98503.95
2023-03-23T20:04:41.450Z,98501.84
2023-03-23T20:07:10.249Z,98502.89
2023-03-23T20:09:38.968Z,98496.71
2023-03-23T20:12:12.851Z,98500.12
2023-03-23T20:14:45.018Z,98497.25
2023-03-23T20:17:14.745Z,98496.73
2023-03-23T20:19:45.743Z,98494.29
2023-03-23T20:22:14.827Z,98491.95
2023-03-23T20:24:47.178Z,98487.39
2023-03-23T20:27:15.849Z,98487.85
2023-03-23T20:29:45.109Z,98488.14
2023-03-23T20:32:17.670Z,98488.25
2023-03-23T20:34:49.413Z,98484.77
2023-03-23T20:37:20.627Z,98482.07
2023-03-23T20:39:50.710Z,98480.23
2023-03-23T20:42:19.844Z,98480.23
2023-03-23T20:44:47.835Z,98480.67
2023-03-23T20:47:18.638Z,98476.36
2023-03-23T20:49:53.206Z,98475.72
2023-03-23T20:52:23.456Z,98474.89
2023-03-23T20:54:54.927Z,98469.26
2023-03-23T20:57:23.128Z,98469.67
2023-03-23T20:59:53.381Z,98467.83
2023-03-23T21:02:22.362Z,98464.78
2023-03-23T21:04:53.139Z,98465.30
2023-03-23T21:07:23.856Z,98461.91
2023-03-23T21:09:52.372Z,98464.18
2023-03-23T21:12:23.381Z,98460.59
2023-03-23T21:14:51.658Z,98459.20
2023-03-23T21:17:19.989Z,98456.47
2023-03-23T21:23:05.980Z,98461.21
2023-03-23T21:25:36.204Z,98461.98
2023-03-23T21:28:05.505Z,98462.20
2023-03-23T21:30:33.648Z,98464.64
2023-03-23T21:33:01.722Z,98465.48
2023-03-23T21:35:30.042Z,98464.05
2023-03-23T21:37:58.165Z,98462.89
2023-03-23T21:40:27.209Z,98456.81
2023-03-23T21:42:55.430Z,98461.80
2023-03-23T21:45:23.430Z,98462.13
2023-03-23T21:47:57.292Z,98458.36
2023-03-23T21:50:25.492Z,98461.11
2023-03-23T21:53:03.097Z,98466.89
2023-03-23T21:55:34.120Z,98464.85
2023-03-23T21:58:02.215Z,98466.26
2023-03-23T22:00:30.140Z,98464.00
2023-03-23T22:02:59.720Z,98461.08
2023-03-23T22:05:28.170Z,98459.27
2023-03-23T22:07:58.885Z,98462.20
2023-03-23T22:10:26.976Z,98463.02
2023-03-23T22:12:55.679Z,98461.61
2023-03-23T22:15:28.112Z,98464.55
2023-03-23T22:17:57.603Z,98465.84
2023-03-23T22:20:26.798Z,98464.58
2023-03-23T22:22:56.329Z,98467.52
2023-03-23T22:25:24.845Z,98465.00
2023-03-23T22:27:53.091Z,98465.27
2023-03-23T22:30:21.076Z,98465.16
2023-03-23T22:32:49.568Z,98470.95
2023-03-23T22:35:17.954Z,98467.26
2023-03-23T22:37:49.408Z,98466.02
2023-03-23T22:40:18.575Z,98469.55
2023-03-23T22:42:47.045Z,98472.94
2023-03-23T22:45:15.402Z,98473.59
2023-03-23T22:47:43.481Z,98474.02
2023-03-23T22:50:12.584Z,98475.14
2023-03-23T22:52:41.458Z,98477.08
2023-03-23T22:55:10.520Z,98473.72
2023-03-23T22:57:39.105Z,98472.09
2023-03-23T23:00:14.257Z,98476.71
2023-03-23T23:02:42.781Z,98472.05
2023-03-23T23:05:11.733Z,98464.11
2023-03-23T23:07:42.836Z,98461.01
2023-03-23T23:10:10.797Z,98452.14
2023-03-23T23:12:42.525Z,98448.23
2023-03-23T23:15:20.663Z,98441.77
2023-03-23T23:17:48.984Z,98446.45
2023-03-23T23:20:19.003Z,98446.41
2023-03-23T23:22:50.916Z,98445.15
2023-03-23T23:25:18.902Z,98443.13
2023-03-23T23:27:46.817Z,98444.09
2023-03-23T23:30:14.973Z,98442.89
2023-03-23T23:32:52.130Z,98451.70
2023-03-23T23:35:26.265Z,98450.80
2023-03-23T23:37:55.659Z,98452.36
2023-03-23T23:40:24.662Z,98452.80
2023-03-23T23:42:53.670Z,98447.68
2023-03-23T23:45:22.446Z,98449.30
2023-03-23T23:47:59.916Z,98447.48
2023-03-23T23:50:28.112Z,98441.84
2023-03-23T23:52:58.616Z,98435.52
2023-03-23T23:55:26.685Z,98431.76
2023-03-23T23:57:55.078Z,98427.16
